createdAt,value
2024-01-11T00:01:00.683Z,-5.20
2024-01-11T00:03:31.016Z,-5.00
2024-01-11T00:06:03.688Z,-5.00
2024-01-11T00:08:38.881Z,-5.10
2024-01-11T00:11:09.541Z,-5.00
2024-01-11T00:13:42.597Z,-4.80
2024-01-11T00:16:12.874Z,-4.90
2024-01-11T00:18:43.151Z,-5.00
2024-01-11T00:21:13.512Z,-5.10
2024-01-11T00:23:51.199Z,-5.00
2024-01-11T00:26:21.601Z,-4.80
2024-01-11T00:28:51.955Z,-4.80
2024-01-11T00:31:28.643Z,-4.70
2024-01-11T00:33:59.098Z,-4.80
2024-01-11T00:36:29.596Z,-4.90
2024-01-11T00:39:04.888Z,-5.00
2024-01-11T00:41:38.385Z,-5.20
2024-01-11T00:44:08.892Z,-5.30
2024-01-11T00:46:39.670Z,-5.30
2024-01-11T00:49:10.658Z,-5.30
2024-01-11T00:51:48.547Z,-5.20
2024-01-11T00:54:21.567Z,-5.20
2024-01-11T00:56:52.337Z,-5.20
2024-01-11T00:59:28.301Z,-5.10
2024-01-11T01:01:58.579Z,-5.00
2024-01-11T01:04:28.982Z,-5.00
2024-01-11T01:06:59.296Z,-5.00
2024-01-11T01:09:32.203Z,-5.00
2024-01-11T01:12:04.473Z,-5.00
2024-01-11T01:14:34.982Z,-5.10
2024-01-11T01:17:05.326Z,-5.00
2024-01-11T01:19:36.087Z,-5.00
2024-01-11T01:22:06.737Z,-5.10
2024-01-11T01:24:39.996Z,-5.00
2024-01-11T01:27:10.282Z,-5.00
2024-01-11T01:29:43.456Z,-5.10
2024-01-11T01:32:13.743Z,-5.20
2024-01-11T01:34:46.503Z,-5.20
2024-01-11T01:37:23.827Z,-5.20
2024-01-11T01:39:58.888Z,-5.20
2024-01-11T01:42:29.215Z,-5.30
2024-01-11T01:45:06.806Z,-5.20
2024-01-11T01:47:37.346Z,-5.20
2024-01-11T01:50:09.940Z,-5.30
2024-01-11T01:52:44.090Z,-5.30
2024-01-11T01:55:22.006Z,-5.40
2024-01-11T01:57:56.827Z,-5.40
2024-01-11T02:00:28.109Z,-5.40
2024-01-11T02:03:02.204Z,-5.50
2024-01-11T02:05:35.063Z,-5.40
2024-01-11T02:08:11.329Z,-5.50
2024-01-11T02:10:44.412Z,-5.40
2024-01-11T02:13:15.992Z,-5.40
2024-01-11T02:15:46.354Z,-5.40
2024-01-11T02:18:16.895Z,-5.50
2024-01-11T02:20:47.438Z,-5.60
2024-01-11T02:23:23.489Z,-5.60
2024-01-11T02:25:56.404Z,-5.60
2024-01-11T02:28:26.734Z,-5.50
2024-01-11T02:31:00.166Z,-5.50
2024-01-11T02:33:30.698Z,-5.40
2024-01-11T02:36:04.876Z,-5.50
2024-01-11T02:38:35.944Z,-5.70
2024-01-11T02:41:22.964Z,-5.70
2024-01-11T02:43:56.134Z,-5.80
2024-01-11T02:46:26.434Z,-5.80
2024-01-11T02:49:02.428Z,-5.80
2024-01-11T02:51:32.804Z,-5.90
2024-01-11T02:54:03.048Z,-5.80
2024-01-11T02:56:35.995Z,-5.70
2024-01-11T02:59:06.502Z,-5.80
2024-01-11T03:01:36.886Z,-5.70
2024-01-11T03:04:13.335Z,-5.60
2024-01-11T03:06:43.619Z,-5.60
2024-01-11T03:09:13.919Z,-5.70
2024-01-11T03:11:49.845Z,-5.80
2024-01-11T03:14:23.114Z,-5.80
2024-01-11T03:16:53.499Z,-5.70
2024-01-11T03:19:23.752Z,-5.70
2024-01-11T03:21:54.344Z,-5.70
2024-01-11T03:24:24.599Z,-5.60
2024-01-11T03:26:57.502Z,-5.60
2024-01-11T03:29:27.887Z,-5.60
2024-01-11T03:31:58.258Z,-5.50
2024-01-11T03:34:28.780Z,-5.30
2024-01-11T03:36:59.216Z,-5.20
2024-01-11T03:39:31.968Z,-5.30
2024-01-11T03:42:05.293Z,-5.20
2024-01-11T03:44:35.583Z,-5.10
2024-01-11T03:47:06.043Z,-5.10
2024-01-11T03:49:36.316Z,-5.10
2024-01-11T03:52:07.610Z,-5.30
2024-01-11T03:54:40.506Z,-5.20
2024-01-11T03:57:13.402Z,-5.20
2024-01-11T03:59:44.588Z,-5.20
2024-01-11T04:02:17.128Z,-5.20
2024-01-11T04:04:53.234Z,-5.30
2024-01-11T04:07:28.400Z,-5.30
2024-01-11T04:10:13.906Z,-5.30
2024-01-11T04:12:49.451Z,-5.40
2024-01-11T04:15:20.520Z,-5.40
2024-01-11T04:17:59.718Z,-5.40
2024-01-11T04:20:30.153Z,-5.40
2024-01-11T04:23:07.744Z,-5.50
2024-01-11T04:25:39.121Z,-5.60
2024-01-11T04:28:14.233Z,-5.60
2024-01-11T04:30:44.507Z,-5.50
2024-01-11T04:33:15.120Z,-5.50
2024-01-11T04:35:47.937Z,-5.40
2024-01-11T04:38:36.375Z,-5.60
2024-01-11T04:41:12.979Z,-5.60
2024-01-11T04:43:56.748Z,-5.50
2024-01-11T04:46:30.450Z,-5.50
2024-01-11T04:49:02.891Z,-5.60
2024-01-11T04:51:33.278Z,-5.60
2024-01-11T04:54:03.513Z,-5.60
2024-01-11T04:56:33.917Z,-5.50
2024-01-11T04:59:06.939Z,-5.60
2024-01-11T05:01:51.271Z,-5.60
2024-01-11T05:04:21.537Z,-5.60
2024-01-11T05:06:51.940Z,-5.40
2024-01-11T05:09:22.191Z,-5.40
2024-01-11T05:11:52.533Z,-5.10
2024-01-11T05:14:30.514Z,-4.80
2024-01-11T05:17:19.515Z,-4.60
2024-01-11T05:19:49.806Z,-4.80
2024-01-11T05:22:28.925Z,-5.00
2024-01-11T05:24:59.194Z,-5.10
2024-01-11T05:27:29.444Z,-5.20
2024-01-11T05:30:04.919Z,-5.20
2024-01-11T05:32:35.388Z,-5.40
2024-01-11T05:35:05.840Z,-5.50
2024-01-11T05:37:36.379Z,-5.50
2024-01-11T05:40:12.568Z,-5.50
2024-01-11T05:42:50.591Z,-5.60
2024-01-11T05:45:32.108Z,-5.80
2024-01-11T05:48:11.377Z,-5.90
2024-01-11T05:50:41.903Z,-5.90
2024-01-11T05:53:22.322Z,-5.90
2024-01-11T05:55:55.200Z,-5.90
2024-01-11T05:58:25.911Z,-5.90
2024-01-11T06:01:01.715Z,-5.80
2024-01-11T06:03:35.392Z,-5.80
2024-01-11T06:06:07.598Z,-5.70
2024-01-11T06:08:38.105Z,-5.70
2024-01-11T06:11:09.273Z,-5.70
2024-01-11T06:13:39.676Z,-5.80
2024-01-11T06:16:13.627Z,-5.90
2024-01-11T06:18:44.250Z,-6.00
2024-01-11T06:21:14.820Z,-6.00
2024-01-11T06:23:45.146Z,-5.90
2024-01-11T06:26:15.541Z,-6.00
2024-01-11T06:28:51.997Z,-6.10
2024-01-11T06:31:24.909Z,-6.20
2024-01-11T06:33:55.324Z,-6.10
2024-01-11T06:36:26.030Z,-6.00
2024-01-11T06:39:02.596Z,-5.80
2024-01-11T06:41:43.360Z,-5.70
2024-01-11T06:44:13.907Z,-5.80
2024-01-11T06:46:46.789Z,-5.90
2024-01-11T06:49:17.231Z,-5.80
2024-01-11T06:51:49.736Z,-5.70
2024-01-11T06:54:20.269Z,-5.80
2024-01-11T06:56:53.080Z,-6.00
2024-01-11T06:59:27.175Z,-6.10
2024-01-11T07:02:04.093Z,-6.20
2024-01-11T07:04:37.606Z,-6.10
2024-01-11T07:07:14.164Z,-6.00
2024-01-11T07:09:44.465Z,-6.00
2024-01-11T07:12:14.895Z,-6.10
2024-01-11T07:14:46.709Z,-6.00
2024-01-11T07:17:19.673Z,-5.80
2024-01-11T07:20:00.532Z,-5.70
2024-01-11T07:22:30.843Z,-5.90
2024-01-11T07:25:01.246Z,-6.00
2024-01-11T07:27:31.517Z,-6.10
2024-01-11T07:30:03.652Z,-6.10
2024-01-11T07:32:36.611Z,-6.10
2024-01-11T07:35:12.326Z,-6.00
2024-01-11T07:37:51.178Z,-5.90
2024-01-11T07:40:21.646Z,-5.90
2024-01-11T07:42:51.918Z,-5.90
2024-01-11T07:45:22.561Z,-5.90
2024-01-11T07:48:10.058Z,-6.00
2024-01-11T07:50:40.748Z,-6.00
2024-01-11T07:53:11.099Z,-6.00
2024-01-11T07:55:41.534Z,-5.80
2024-01-11T07:58:13.345Z,-5.80
2024-01-11T08:00:43.731Z,-5.70
2024-01-11T08:03:16.704Z,-5.70
2024-01-11T08:05:51.902Z,-5.60
2024-01-11T08:08:23.350Z,-5.40
2024-01-11T08:10:53.910Z,-5.30
2024-01-11T08:13:24.560Z,-5.20
2024-01-11T08:16:01.634Z,-5.10
2024-01-11T08:18:35.045Z,-5.00
2024-01-11T08:21:07.979Z,-5.20
2024-01-11T08:23:38.416Z,-5.00
2024-01-11T08:26:09.714Z,-5.00
2024-01-11T08:28:40.060Z,-5.10
2024-01-11T08:31:13.901Z,-5.10
2024-01-11T08:33:46.970Z,-4.90
2024-01-11T08:36:17.808Z,-4.80
2024-01-11T08:38:48.217Z,-4.90
2024-01-11T08:41:18.831Z,-4.80
2024-01-11T08:43:55.676Z,-4.80
2024-01-11T08:46:32.151Z,-4.80
2024-01-11T08:49:06.552Z,-4.70
2024-01-11T08:51:36.952Z,-4.50
2024-01-11T08:54:12.709Z,-4.30
2024-01-11T08:56:43.294Z,-4.00
2024-01-11T08:59:16.897Z,-3.80
2024-01-11T09:01:56.792Z,-3.70
2024-01-11T09:04:35.914Z,-3.70
2024-01-11T09:07:06.506Z,-3.50
2024-01-11T09:09:44.919Z,-3.30
2024-01-11T09:12:21.624Z,-3.00
2024-01-11T09:14:51.954Z,-2.50
2024-01-11T09:17:23.210Z,-1.90
2024-01-11T09:19:56.333Z,-1.20
2024-01-11T09:22:27.361Z,-0.30
2024-01-11T09:24:57.604Z,1.20
2024-01-11T09:27:27.864Z,1.50
2024-01-11T09:30:00.972Z,2.30
2024-01-11T09:32:32.541Z,2.50
2024-01-11T09:35:11.967Z,4.30
2024-01-11T09:37:47.348Z,4.90
2024-01-11T09:40:18.416Z,5.30
2024-01-11T09:42:57.144Z,5.20
2024-01-11T09:45:33.062Z,5.30
2024-01-11T09:48:05.959Z,6.00
2024-01-11T09:50:40.793Z,6.10
2024-01-11T09:53:15.682Z,6.00
2024-01-11T09:55:53.040Z,5.70
2024-01-11T09:58:25.547Z,5.80
2024-01-11T10:01:00.740Z,4.90
2024-01-11T10:03:34.631Z,4.80
2024-01-11T10:06:12.756Z,5.40
2024-01-11T10:08:49.101Z,5.10
2024-01-11T10:11:21.953Z,5.20
2024-01-11T10:13:52.317Z,4.40
2024-01-11T10:16:22.600Z,4.40
2024-01-11T10:19:06.237Z,4.10
2024-01-11T10:21:45.215Z,4.10
2024-01-11T10:24:24.377Z,4.90
2024-01-11T10:27:05.108Z,5.70
2024-01-11T10:29:39.117Z,5.40
2024-01-11T10:32:12.663Z,5.50
2024-01-11T10:34:43.552Z,4.20
2024-01-11T10:37:18.386Z,4.10
2024-01-11T10:39:54.746Z,4.60
2024-01-11T10:42:32.359Z,4.40
2024-01-11T10:45:08.005Z,4.70
2024-01-11T10:47:41.758Z,4.60
2024-01-11T10:50:13.672Z,4.10
2024-01-11T10:53:08.265Z,4.50
2024-01-11T10:55:39.244Z,4.40
2024-01-11T10:58:13.929Z,4.20
2024-01-11T11:00:51.418Z,4.60
2024-01-11T11:03:26.338Z,4.30
2024-01-11T11:05:59.618Z,4.80
2024-01-11T11:08:32.852Z,4.50
2024-01-11T11:11:07.368Z,3.80
2024-01-11T11:13:42.438Z,3.20
2024-01-11T11:16:12.736Z,4.00
2024-01-11T11:18:45.625Z,4.30
2024-01-11T11:21:15.936Z,4.00
2024-01-11T11:23:48.878Z,4.00
2024-01-11T11:26:23.252Z,3.90
2024-01-11T11:28:53.636Z,3.70
2024-01-11T11:31:39.707Z,4.10
2024-01-11T11:34:10.262Z,4.20
2024-01-11T11:36:40.770Z,4.20
2024-01-11T11:39:15.404Z,4.10
2024-01-11T11:41:48.595Z,4.20
2024-01-11T11:44:20.309Z,4.10
2024-01-11T11:46:53.242Z,4.20
2024-01-11T11:49:23.743Z,4.10
2024-01-11T11:51:54.521Z,4.20
2024-01-11T11:54:30.725Z,3.70
2024-01-11T11:57:04.252Z,3.40
2024-01-11T11:59:35.112Z,3.50
2024-01-11T12:02:05.880Z,3.60
2024-01-11T12:04:38.687Z,3.60
2024-01-11T12:07:09.108Z,3.50
2024-01-11T12:09:42.241Z,4.30
2024-01-11T12:12:16.154Z,3.70
2024-01-11T12:14:50.805Z,3.30
2024-01-11T12:17:25.876Z,3.10
2024-01-11T12:19:57.447Z,3.40
2024-01-11T12:22:30.364Z,3.50
2024-01-11T12:25:05.999Z,3.10
2024-01-11T12:27:42.177Z,2.70
2024-01-11T12:30:18.344Z,2.70
2024-01-11T12:32:50.750Z,2.50
2024-01-11T12:35:25.415Z,2.40
2024-01-11T12:38:05.598Z,2.30
2024-01-11T12:40:41.556Z,1.80
2024-01-11T12:43:21.585Z,1.80
2024-01-11T12:45:52.189Z,1.80
2024-01-11T12:48:22.741Z,1.80
2024-01-11T12:51:02.881Z,1.90
2024-01-11T12:53:46.425Z,2.00
2024-01-11T12:56:20.135Z,1.90
2024-01-11T12:58:53.377Z,2.10
2024-01-11T13:01:27.307Z,2.30
2024-01-11T13:04:00.316Z,2.30
2024-01-11T13:06:33.502Z,2.40
2024-01-11T13:09:06.408Z,2.50
2024-01-11T13:11:39.344Z,2.30
2024-01-11T13:14:20.433Z,1.80
2024-01-11T13:16:55.911Z,2.00
2024-01-11T13:19:27.726Z,1.90
2024-01-11T13:21:58.324Z,1.80
2024-01-11T13:24:28.653Z,1.90
2024-01-11T13:27:01.635Z,1.90
2024-01-11T13:29:32.038Z,2.10
2024-01-11T13:32:07.790Z,2.20
2024-01-11T13:34:38.077Z,2.10
2024-01-11T13:37:08.387Z,2.10
2024-01-11T13:39:38.788Z,2.00
2024-01-11T13:42:17.255Z,1.90
2024-01-11T13:44:47.701Z,1.90
2024-01-11T13:47:18.031Z,1.90
2024-01-11T13:49:48.476Z,1.80
2024-01-11T13:52:24.814Z,1.50
2024-01-11T13:54:55.347Z,1.50
2024-01-11T13:57:28.257Z,1.60
2024-01-11T13:59:58.683Z,1.60
2024-01-11T14:02:31.763Z,1.50
2024-01-11T14:05:05.435Z,1.50
2024-01-11T14:07:35.810Z,1.60
2024-01-11T14:10:07.036Z,1.60
2024-01-11T14:12:40.429Z,1.60
2024-01-11T14:15:17.467Z,1.50
2024-01-11T14:17:57.308Z,1.40
2024-01-11T14:20:28.883Z,1.40
2024-01-11T14:22:59.921Z,1.30
2024-01-11T14:25:30.653Z,1.30
2024-01-11T14:28:05.374Z,1.20
2024-01-11T14:30:35.887Z,1.00
2024-01-11T14:33:09.462Z,1.00
2024-01-11T14:35:39.901Z,1.00
2024-01-11T14:38:10.269Z,0.90
2024-01-11T14:40:46.674Z,0.80
2024-01-11T14:43:21.783Z,0.80
2024-01-11T14:45:53.660Z,0.70
2024-01-11T14:48:25.986Z,0.80
2024-01-11T14:50:56.458Z,0.70
2024-01-11T14:53:26.914Z,0.60
2024-01-11T14:55:59.627Z,0.50
2024-01-11T14:58:32.927Z,0.50
2024-01-11T15:01:05.697Z,0.50
2024-01-11T15:03:36.039Z,0.40
2024-01-11T15:06:08.748Z,0.30
2024-01-11T15:08:39.316Z,0.30
2024-01-11T15:11:18.830Z,0.30
2024-01-11T15:13:51.797Z,0.30
2024-01-11T15:16:27.563Z,0.10
2024-01-11T15:18:57.934Z,0.10
2024-01-11T15:21:29.156Z,0.00
2024-01-11T15:24:00.538Z,0.00
2024-01-11T15:26:33.233Z,-0.10
2024-01-11T15:29:07.096Z,-0.10
2024-01-11T15:31:41.731Z,-0.10
2024-01-11T15:34:12.334Z,-0.20
2024-01-11T15:36:43.366Z,-0.20
2024-01-11T15:39:25.030Z,-0.30
2024-01-11T15:41:59.637Z,-0.30
2024-01-11T15:44:35.817Z,-0.30
2024-01-11T15:47:06.306Z,-0.30
2024-01-11T15:49:37.058Z,-0.30
2024-01-11T15:52:07.999Z,-0.30
2024-01-11T15:54:40.807Z,-0.40
2024-01-11T15:57:11.085Z,-0.40
2024-01-11T15:59:43.978Z,-0.50
2024-01-11T16:02:15.853Z,-0.50
2024-01-11T16:04:46.706Z,-0.60
2024-01-11T16:07:20.061Z,-0.60
2024-01-11T16:09:53.307Z,-0.70
2024-01-11T16:12:24.808Z,-0.70
2024-01-11T16:14:59.426Z,-0.70
2024-01-11T16:17:31.542Z,-0.60
2024-01-11T16:20:02.584Z,-0.50
2024-01-11T16:22:35.870Z,-0.60
2024-01-11T16:25:06.898Z,-0.70
2024-01-11T16:27:41.233Z,-0.70
2024-01-11T16:30:17.527Z,-0.80
2024-01-11T16:32:47.912Z,-0.80
2024-01-11T16:35:21.589Z,-0.80
2024-01-11T16:37:52.582Z,-0.80
2024-01-11T16:40:23.130Z,-0.80
2024-01-11T16:42:53.400Z,-0.80
2024-01-11T16:45:30.041Z,-0.80
2024-01-11T16:48:06.031Z,-0.80
2024-01-11T16:50:36.902Z,-0.80
2024-01-11T16:53:07.792Z,-0.90
2024-01-11T16:55:38.056Z,-0.90
2024-01-11T16:58:08.395Z,-0.90
2024-01-11T17:00:41.358Z,-0.90
2024-01-11T17:03:12.594Z,-1.00
2024-01-11T17:05:51.837Z,-1.00
2024-01-11T17:08:22.161Z,-1.10
2024-01-11T17:10:55.794Z,-1.20
2024-01-11T17:13:26.187Z,-1.10
2024-01-11T17:16:01.645Z,-1.10
2024-01-11T17:18:32.185Z,-1.10
2024-01-11T17:21:02.845Z,-1.20
2024-01-11T17:23:33.258Z,-1.20
2024-01-11T17:26:05.790Z,-1.30
2024-01-11T17:28:36.347Z,-1.30
2024-01-11T17:31:12.200Z,-1.20
2024-01-11T17:33:46.143Z,-1.30
2024-01-11T17:36:18.035Z,-1.30
2024-01-11T17:38:49.101Z,-1.40
2024-01-11T17:41:19.583Z,-1.40
2024-01-11T17:43:54.045Z,-1.30
2024-01-11T17:46:33.327Z,-1.40
2024-01-11T17:49:10.234Z,-1.40
2024-01-11T17:51:40.912Z,-1.40
2024-01-11T17:54:11.233Z,-1.50
2024-01-11T17:56:44.346Z,-1.50
2024-01-11T17:59:14.919Z,-1.30
2024-01-11T18:01:47.879Z,-1.20
2024-01-11T18:04:28.704Z,-1.30
2024-01-11T18:06:59.109Z,-1.30
2024-01-11T18:09:29.400Z,-1.40
2024-01-11T18:11:59.715Z,-1.50
2024-01-11T18:14:32.784Z,-1.50
2024-01-11T18:17:15.576Z,-1.40
2024-01-11T18:19:46.367Z,-1.50
2024-01-11T18:22:25.282Z,-1.70
2024-01-11T18:24:55.676Z,-1.90
2024-01-11T18:27:28.845Z,-2.00
2024-01-11T18:30:02.652Z,-2.00
2024-01-11T18:32:35.939Z,-2.10
2024-01-11T18:35:12.424Z,-2.10
2024-01-11T18:37:42.699Z,-2.10
2024-01-11T18:40:14.701Z,-2.10
2024-01-11T18:42:47.627Z,-2.00
2024-01-11T18:45:18.102Z,-2.10
2024-01-11T18:47:53.133Z,-2.20
2024-01-11T18:50:30.939Z,-2.30
2024-01-11T18:53:04.577Z,-2.30
2024-01-11T18:55:37.366Z,-2.30
2024-01-11T18:58:11.061Z,-2.20
2024-01-11T19:00:41.892Z,-2.30
2024-01-11T19:03:25.406Z,-2.40
2024-01-11T19:05:58.323Z,-2.40
2024-01-11T19:08:33.590Z,-2.20
2024-01-11T19:11:04.375Z,-1.70
2024-01-11T19:13:34.751Z,-1.40
2024-01-11T19:16:05.032Z,-1.50
2024-01-11T19:18:40.273Z,-1.50
2024-01-11T19:23:45.686Z,-1.50
2024-01-11T19:26:16.048Z,-1.60
2024-01-11T19:28:46.556Z,-1.70
2024-01-11T19:31:19.409Z,-1.90
2024-01-11T19:33:55.701Z,-2.00
2024-01-11T19:36:26.027Z,-2.30
2024-01-11T19:38:57.960Z,-2.50
2024-01-11T19:41:33.257Z,-2.60
2024-01-11T19:44:03.734Z,-2.70
2024-01-11T19:46:35.591Z,-2.70
2024-01-11T19:49:08.746Z,-2.50
2024-01-11T19:51:39.169Z,-2.50
2024-01-11T19:54:12.015Z,-2.50
2024-01-11T19:56:42.383Z,-2.50
2024-01-11T19:59:12.904Z,-2.60
2024-01-11T20:01:46.506Z,-2.80
2024-01-11T20:04:21.397Z,-2.80
2024-01-11T20:06:51.794Z,-2.80
2024-01-11T20:09:22.621Z,-2.80
2024-01-11T20:11:58.544Z,-2.90
2024-01-11T20:14:40.992Z,-2.80
2024-01-11T20:17:14.639Z,-2.80
2024-01-11T20:19:54.409Z,-2.80
2024-01-11T20:22:27.379Z,-2.80
2024-01-11T20:24:57.975Z,-2.90
2024-01-11T20:27:28.259Z,-3.00
2024-01-11T20:29:58.835Z,-2.90
2024-01-11T20:32:29.446Z,-3.00
2024-01-11T20:35:02.426Z,-2.90
2024-01-11T20:37:34.995Z,-2.80
2024-01-11T20:40:13.122Z,-2.80
2024-01-11T20:42:45.666Z,-2.70
2024-01-11T20:45:19.003Z,-2.50
2024-01-11T20:47:49.460Z,-2.40
2024-01-11T20:50:22.468Z,-2.30
2024-01-11T20:52:52.835Z,-2.10
2024-01-11T20:55:25.167Z,-1.90
2024-01-11T20:57:55.574Z,-1.90
2024-01-11T21:00:25.846Z,-1.80
2024-01-11T21:02:57.190Z,-1.80
2024-01-11T21:05:38.176Z,-1.70
2024-01-11T21:08:11.193Z,-0.90
2024-01-11T21:10:44.282Z,-0.40
2024-01-11T21:13:16.515Z,-0.70
2024-01-11T21:16:02.973Z,-1.20
2024-01-11T21:18:33.569Z,-1.40
2024-01-11T21:21:06.760Z,-1.40
2024-01-11T21:23:37.300Z,-1.30
2024-01-11T21:26:07.947Z,-1.50
2024-01-11T21:28:41.024Z,-1.50
2024-01-11T21:31:14.220Z,-1.50
2024-01-11T21:33:47.093Z,-1.60
2024-01-11T21:36:24.000Z,-1.50
2024-01-11T21:38:56.592Z,-1.40
2024-01-11T21:41:28.617Z,-1.40
2024-01-11T21:44:00.250Z,-1.30
2024-01-11T21:46:33.567Z,-1.40
2024-01-11T21:49:07.655Z,-1.50
2024-01-11T21:51:43.664Z,-1.40
2024-01-11T21:54:16.803Z,-1.40
2024-01-11T21:56:47.190Z,-1.40
2024-01-11T21:59:17.493Z,-1.30
2024-01-11T22:01:50.922Z,-1.20
2024-01-11T22:04:24.038Z,-0.80
2024-01-11T22:07:04.758Z,-0.80
2024-01-11T22:09:35.614Z,-0.80
2024-01-11T22:12:06.210Z,-0.90
2024-01-11T22:14:45.595Z,-0.90
2024-01-11T22:17:18.961Z,-0.90
2024-01-11T22:19:49.584Z,-0.80
2024-01-11T22:22:24.764Z,-0.80
2024-01-11T22:24:57.691Z,-0.90
2024-01-11T22:27:28.760Z,-0.80
2024-01-11T22:30:01.317Z,-0.80
2024-01-11T22:32:38.987Z,-0.60
2024-01-11T22:35:13.106Z,-0.60
2024-01-11T22:37:45.985Z,-0.60
2024-01-11T22:40:17.946Z,-0.70
2024-01-11T22:42:49.582Z,-0.70
2024-01-11T22:45:20.054Z,-0.40
2024-01-11T22:47:51.200Z,-0.40
2024-01-11T22:50:21.526Z,-0.50
2024-01-11T22:52:55.087Z,-0.50
2024-01-11T22:55:25.395Z,-0.50
2024-01-11T22:57:58.619Z,-0.60
2024-01-11T23:00:30.226Z,-0.70
2024-01-11T23:03:00.623Z,-0.50
2024-01-11T23:05:31.100Z,-0.60
2024-01-11T23:08:04.094Z,-0.60
2024-01-11T23:10:36.745Z,-0.50
2024-01-11T23:13:07.797Z,-0.50
2024-01-11T23:15:38.121Z,-0.60
2024-01-11T23:18:09.986Z,-0.60
2024-01-11T23:20:40.496Z,-0.60
2024-01-11T23:23:13.447Z,-0.60
2024-01-11T23:25:43.697Z,-0.50
2024-01-11T23:28:14.014Z,-0.30
2024-01-11T23:30:44.260Z,-0.50
2024-01-11T23:33:35.174Z,-0.60
2024-01-11T23:36:05.552Z,-0.70
2024-01-11T23:38:43.542Z,-0.70
2024-01-11T23:41:13.914Z,-0.60
2024-01-11T23:43:44.245Z,-0.50
2024-01-11T23:46:14.517Z,-0.40
2024-01-11T23:48:44.890Z,-0.30
2024-01-11T23:51:15.264Z,-0.30
2024-01-11T23:53:48.225Z,-0.10
2024-01-11T23:56:18.599Z,-0.10
2024-01-11T23:58:51.693Z,-0.30
